Time;durP1;ratioP1;P1;durP2;ratioP2;P2;SDS_P1;SDS_P2;PMS_P1;PMS_P2;Temp;Humidity;BMP_temperature;BMP_pressure;BME280_temperature;BME280_humidity;BME280_pressure;Samples;Min_cycle;Max_cycle;Signal;HPM_P1;HPM_P2
2022/08/19 00:00:54;;;;;;;21.60;16.73;;;;;;;20.76;100.00;99636.03;1635914;87;21028;-61
2022/08/19 00:03:21;;;;;;;23.23;17.07;;;;;;;20.76;100.00;99646.62;1635989;87;21813;-56
2022/08/19 00:05:49;;;;;;;17.23;14.23;;;;;;;20.75;100.00;99650.34;1636857;87;21464;-57
2022/08/19 00:08:17;;;;;;;19.43;15.17;;;;;;;20.74;100.00;99652.73;1636940;87;21076;-57
2022/08/19 00:10:45;;;;;;;20.33;14.47;;;;;;;20.79;100.00;99648.22;1637122;86;21281;-57
2022/08/19 00:13:13;;;;;;;16.37;13.67;;;;;;;20.76;100.00;99651.92;1636247;86;21028;-63
2022/08/19 00:15:44;;;;;;;20.10;14.10;;;;;;;20.72;100.00;99660.95;1636961;87;21481;-56
2022/08/19 00:18:10;;;;;;;18.30;13.90;;;;;;;20.70;100.00;99668.36;1637118;86;21021;-56
2022/08/19 00:20:40;;;;;;;17.23;12.87;;;;;;;20.67;100.00;99670.73;1637842;86;21024;-57
2022/08/19 00:23:07;;;;;;;14.77;11.93;;;;;;;20.69;100.00;99672.61;1636526;87;21220;-57
2022/08/19 00:25:36;;;;;;;15.27;11.33;;;;;;;20.68;100.00;99673.11;1637355;87;21102;-56
2022/08/19 00:28:04;;;;;;;18.37;11.77;;;;;;;20.54;100.00;99674.17;1637472;86;21076;-57
2022/08/19 00:30:31;;;;;;;17.73;12.47;;;;;;;20.59;100.00;99675.50;1637000;86;20968;-57
2022/08/19 00:32:59;;;;;;;16.50;12.20;;;;;;;21.06;100.00;99671.81;1636128;87;21075;-65
2022/08/19 00:35:27;;;;;;;14.83;10.63;;;;;;;22.16;100.00;99657.45;1637104;87;21109;-58
2022/08/19 00:37:54;;;;;;;16.40;10.93;;;;;;;23.53;100.00;99644.38;1637031;87;21023;-58
2022/08/19 00:40:21;;;;;;;12.73;9.23;;;;;;;23.11;100.00;99642.95;1637585;86;21098;-57
2022/08/19 00:42:49;;;;;;;13.87;10.20;;;;;;;22.67;100.00;99647.30;1637159;87;20964;-64
2022/08/19 00:45:18;;;;;;;12.40;10.40;;;;;;;22.66;100.00;99652.91;1637112;87;21505;-57
2022/08/19 00:47:45;;;;;;;12.67;10.23;;;;;;;22.47;100.00;99648.25;1637580;86;21252;-57
2022/08/19 00:50:15;;;;;;;13.73;9.70;;;;;;;22.57;100.00;99650.02;1637271;87;21001;-57
2022/08/19 00:52:46;;;;;;;13.50;9.83;;;;;;;22.79;100.00;99645.61;1637535;87;21466;-65
2022/08/19 00:55:18;;;;;;;12.93;10.05;;;;;;;22.94;100.00;99642.84;1637724;86;21078;-58
2022/08/19 00:57:50;;;;;;;15.43;11.00;;;;;;;22.82;100.00;99647.17;1637013;87;21575;-57
2022/08/19 01:00:18;;;;;;;13.67;10.13;;;;;;;22.95;100.00;99653.73;1636787;87;22030;-57
2022/08/19 01:02:46;;;;;;;14.67;10.93;;;;;;;22.83;100.00;99653.28;1636356;87;20995;-63
2022/08/19 01:05:18;;;;;;;12.70;10.07;;;;;;;22.76;100.00;99652.27;1636631;87;21050;-58
2022/08/19 01:07:45;;;;;;;13.87;11.07;;;;;;;22.88;100.00;99652.44;1637040;87;21047;-57
2022/08/19 01:10:15;;;;;;;12.83;10.33;;;;;;;22.89;100.00;99657.48;1636914;87;21016;-56
2022/08/19 01:12:42;;;;;;;10.77;9.67;;;;;;;22.88;100.00;99649.27;1636202;87;21430;-57
2022/08/19 01:15:11;;;;;;;15.57;12.03;;;;;;;22.87;100.00;99648.98;1636550;87;21067;-60
2022/08/19 01:17:39;;;;;;;17.17;10.43;;;;;;;22.85;100.00;99653.80;1636924;86;21075;-56
2022/08/19 01:20:10;;;;;;;12.77;10.60;;;;;;;22.77;100.00;99655.20;1636919;87;20996;-57
2022/08/19 01:22:47;;;;;;;13.83;10.98;;;;;;;22.71;100.00;99659.49;1606370;88;21553;-58
2022/08/19 01:25:19;;;;;;;14.27;11.23;;;;;;;22.49;100.00;99651.95;1636888;87;21881;-57
2022/08/19 01:27:48;;;;;;;13.03;11.63;;;;;;;22.44;100.00;99652.78;1637051;87;21068;-58
2022/08/19 01:30:20;;;;;;;19.43;13.63;;;;;;;22.48;100.00;99653.02;1637148;87;21108;-57
2022/08/19 01:32:47;;;;;;;21.53;14.67;;;;;;;22.75;100.00;99652.55;1636817;87;21012;-58
2022/08/19 01:35:17;;;;;;;18.80;14.60;;;;;;;22.81;100.00;99650.91;1637048;87;21090;-57
2022/08/19 01:37:49;;;;;;;18.80;14.13;;;;;;;21.61;100.00;99649.45;1637727;86;22479;-57
2022/08/19 01:40:17;;;;;;;22.37;17.23;;;;;;;21.65;100.00;99653.69;1636358;86;20983;-60
2022/08/19 01:42:44;;;;;;;20.80;17.00;;;;;;;21.72;100.00;99651.54;1636197;87;21040;-59
2022/08/19 01:45:11;;;;;;;21.93;17.20;;;;;;;21.62;100.00;99650.50;1636865;87;21476;-57
2022/08/19 01:47:40;;;;;;;25.87;18.63;;;;;;;21.68;100.00;99645.20;1637271;87;21718;-57
2022/08/19 01:50:09;;;;;;;21.43;16.93;;;;;;;21.45;100.00;99638.10;1637370;87;22187;-58
2022/08/19 01:52:39;;;;;;;24.47;16.40;;;;;;;21.18;100.00;99634.43;1636355;87;22233;-57
2022/08/19 01:55:08;;;;;;;20.27;15.93;;;;;;;21.48;100.00;99637.57;1637700;87;21424;-58
2022/08/19 01:57:35;;;;;;;19.43;15.93;;;;;;;21.75;100.00;99636.41;1637549;87;21051;-58
2022/08/19 02:00:06;;;;;;;19.63;15.57;;;;;;;21.81;100.00;99638.75;1637462;87;20985;-57
2022/08/19 02:02:35;;;;;;;20.37;15.90;;;;;;;21.56;100.00;99640.98;1636007;87;21698;-58
2022/08/19 02:05:03;;;;;;;21.17;14.37;;;;;;;21.75;100.00;99642.51;1636929;87;21066;-57
2022/08/19 02:07:32;;;;;;;19.33;15.33;;;;;;;21.89;100.00;99649.33;1637174;87;21040;-57
2022/08/19 02:10:00;;;;;;;17.80;14.57;;;;;;;21.95;100.00;99652.23;1637312;87;21044;-57
2022/08/19 02:12:29;;;;;;;16.40;14.53;;;;;;;22.01;100.00;99651.66;1585505;89;21043;-60
2022/08/19 02:14:57;;;;;;;16.87;14.10;;;;;;;22.18;100.00;99644.72;1590205;90;22590;-57
2022/08/19 02:17:26;;;;;;;14.20;12.70;;;;;;;22.30;100.00;99637.98;1618997;87;21015;-57
2022/08/19 02:19:53;;;;;;;14.83;12.43;;;;;;;22.15;100.00;99631.98;1637023;87;20921;-59
2022/08/19 02:22:20;;;;;;;13.50;12.10;;;;;;;22.10;100.00;99636.23;1636278;87;21012;-58
2022/08/19 02:24:48;;;;;;;15.33;12.10;;;;;;;22.14;100.00;99639.16;1636147;87;21074;-58
2022/08/19 02:27:16;;;;;;;17.07;11.70;;;;;;;22.02;100.00;99644.77;1636888;87;21536;-57
2022/08/19 02:29:45;;;;;;;16.43;11.70;;;;;;;21.99;100.00;99643.98;1636759;87;20956;-57
2022/08/19 02:32:13;;;;;;;14.73;11.67;;;;;;;21.89;100.00;99638.72;1638183;86;20928;-58
2022/08/19 02:34:41;;;;;;;16.67;11.03;;;;;;;21.91;100.00;99635.27;1636419;87;20928;-67
2022/08/19 02:38:25;;;;;;;14.70;11.47;;;;;;;21.82;100.00;99638.22;1636778;87;21138;-57
2022/08/19 02:39:39;;;;;;;13.73;10.80;;;;;;;21.85;100.00;99635.81;1645127;86;21237;-58
2022/08/19 02:42:07;;;;;;;13.50;10.67;;;;;;;21.82;100.00;99637.70;1636245;87;20971;-58
2022/08/19 02:44:34;;;;;;;15.30;11.33;;;;;;;21.82;100.00;99644.34;1636255;87;21399;-65
2022/08/19 02:47:02;;;;;;;14.40;11.67;;;;;;;21.82;100.00;99642.20;1636929;87;21468;-58
2022/08/19 02:49:31;;;;;;;16.03;11.50;;;;;;;21.85;100.00;99645.63;1636810;87;21028;-57
2022/08/19 02:51:58;;;;;;;12.47;10.47;;;;;;;21.97;100.00;99643.98;1636138;87;21114;-57
2022/08/19 02:54:27;;;;;;;10.67;9.50;;;;;;;22.01;100.00;99643.19;1636536;87;21488;-58
2022/08/19 02:56:54;;;;;;;14.00;10.83;;;;;;;21.91;100.00;99644.56;1636582;87;21031;-57
2022/08/19 02:59:21;;;;;;;12.93;9.73;;;;;;;21.90;100.00;99646.96;1636452;87;21004;-57
2022/08/19 03:01:48;;;;;;;11.73;9.90;;;;;;;21.81;100.00;99644.59;1636845;86;21580;-58
2022/08/19 03:04:16;;;;;;;11.47;10.10;;;;;;;21.69;100.00;99641.47;1636711;87;22207;-57
2022/08/19 03:06:44;;;;;;;10.07;9.00;;;;;;;21.46;100.00;99640.22;1636535;86;20936;-59
2022/08/19 03:09:12;;;;;;;10.40;8.73;;;;;;;21.36;100.00;99645.80;1636637;87;21614;-58
2022/08/19 03:11:40;;;;;;;10.17;7.77;;;;;;;21.64;100.00;99653.43;1636578;87;20897;-66
2022/08/19 03:14:09;;;;;;;9.20;7.60;;;;;;;21.76;100.00;99653.91;1637455;87;21557;-57
2022/08/19 03:16:46;;;;;;;10.43;7.67;;;;;;;21.90;100.00;99653.59;1636110;86;21269;-58
2022/08/19 03:19:14;;;;;;;11.53;8.10;;;;;;;21.93;100.00;99656.21;1636762;86;20873;-58
2022/08/19 03:21:43;;;;;;;10.93;8.07;;;;;;;21.83;100.00;99655.74;1636041;87;21450;-59
2022/08/19 03:24:11;;;;;;;9.47;7.87;;;;;;;21.97;100.00;99652.77;1636652;86;21318;-61
2022/08/19 03:26:44;;;;;;;10.53;8.40;;;;;;;22.01;100.00;99652.98;1636467;86;21024;-57
2022/08/19 03:29:12;;;;;;;9.87;7.50;;;;;;;22.16;100.00;99654.30;1635930;87;21158;-57
2022/08/19 03:31:41;;;;;;;12.03;8.03;;;;;;;22.33;100.00;99656.03;1636293;87;21053;-66
2022/08/19 03:34:09;;;;;;;13.03;8.90;;;;;;;22.42;100.00;99652.25;1636328;87;21681;-64
2022/08/19 03:36:38;;;;;;;9.23;7.73;;;;;;;22.49;100.00;99657.26;1637293;86;21325;-57
2022/08/19 03:39:08;;;;;;;11.40;7.90;;;;;;;22.56;100.00;99653.22;1636719;87;21051;-57
2022/08/19 03:41:38;;;;;;;10.43;9.33;;;;;;;22.34;100.00;99652.84;1636524;87;21243;-59
2022/08/19 03:44:05;;;;;;;11.25;10.05;;;;;;;22.50;100.00;99658.84;1636432;87;21091;-66
2022/08/19 03:46:33;;;;;;;11.93;9.50;;;;;;;22.65;100.00;99668.02;1636688;87;20968;-58
2022/08/19 03:49:04;;;;;;;10.37;8.47;;;;;;;22.57;100.00;99676.59;1636641;86;20980;-57
2022/08/19 03:51:34;;;;;;;12.68;8.05;;;;;;;22.68;100.00;99679.97;1637164;86;26824;-63
2022/08/19 03:54:52;;;;;;;14.90;10.03;;;;;;;22.43;100.00;99669.79;1850078;77;26807;-57
2022/08/19 03:57:20;;;;;;;11.00;9.10;;;;;;;22.29;100.00;99676.78;1822320;78;20993;-57
2022/08/19 03:59:47;;;;;;;13.10;9.63;;;;;;;22.22;100.00;99676.28;1821166;78;21217;-57
2022/08/19 04:02:15;;;;;;;9.97;8.70;;;;;;;22.22;100.00;99680.27;1822216;78;21602;-57
2022/08/19 04:04:43;;;;;;;12.23;8.80;;;;;;;22.44;100.00;99685.19;1822280;78;20924;-57
2022/08/19 04:07:15;;;;;;;12.03;8.30;;;;;;;22.52;100.00;99692.03;1822206;78;20931;-58
2022/08/19 04:09:43;;;;;;;11.20;9.03;;;;;;;22.91;100.00;99684.59;1821347;78;20950;-59
2022/08/19 04:12:10;;;;;;;12.37;10.00;;;;;;;23.10;100.00;99686.57;1822274;78;22419;-58
2022/08/19 04:14:39;;;;;;;11.20;10.10;;;;;;;23.17;100.00;99685.71;1821993;78;20883;-58
2022/08/19 04:17:06;;;;;;;15.07;10.63;;;;;;;23.13;100.00;99687.34;1821793;78;20986;-61
2022/08/19 04:19:34;;;;;;;10.97;9.50;;;;;;;23.16;100.00;99693.44;1821426;78;21045;-66
2022/08/19 04:22:03;;;;;;;11.00;9.60;;;;;;;23.23;100.00;99688.05;1821589;78;21521;-58
2022/08/19 04:24:30;;;;;;;12.27;10.97;;;;;;;23.21;100.00;99688.06;1822426;78;21802;-59
2022/08/19 04:27:00;;;;;;;17.33;10.97;;;;;;;23.41;100.00;99688.39;1822451;78;21532;-58
2022/08/19 04:29:28;;;;;;;12.93;11.10;;;;;;;23.37;100.00;99685.50;1822431;78;21508;-67
2022/08/19 04:31:55;;;;;;;13.47;11.63;;;;;;;23.59;100.00;99681.56;1821501;78;20935;-58
2022/08/19 04:34:24;;;;;;;12.27;10.90;;;;;;;23.52;100.00;99688.03;1822540;78;21320;-60
2022/08/19 04:36:53;;;;;;;13.83;12.43;;;;;;;23.92;100.00;99688.66;1822540;78;21140;-58
2022/08/19 04:42:38;;;;;;;15.53;12.63;;;;;;;23.47;100.00;99696.05;1822324;78;20970;-58
2022/08/19 04:44:38;;;;;;;14.87;13.37;;;;;;;23.62;100.00;99696.42;1821859;78;20999;-60
2022/08/19 04:47:06;;;;;;;14.00;12.50;;;;;;;24.43;100.00;99689.87;1822433;78;20935;-58
2022/08/19 04:49:35;;;;;;;15.97;13.93;;;;;;;25.14;100.00;99694.11;1820726;78;22843;-60
2022/08/19 04:52:03;;;;;;;16.80;14.97;;;;;;;25.71;100.00;99703.20;1821270;78;21469;-58
2022/08/19 04:54:30;;;;;;;18.12;14.93;;;;;;;26.46;100.00;99697.16;1813325;78;20989;-59
2022/08/19 04:56:59;;;;;;;18.32;16.17;;;;;;;27.38;100.00;99689.02;1810599;79;20990;-61
2022/08/19 04:59:26;;;;;;;17.05;14.80;;;;;;;28.11;100.00;99672.79;1810915;79;21477;-64
2022/08/19 05:01:53;;;;;;;16.05;14.43;;;;;;;28.44;100.00;99677.70;1809887;79;21503;-60
2022/08/19 05:04:21;;;;;;;17.00;14.25;;;;;;;28.21;100.00;99675.70;1810489;79;21025;-58
2022/08/19 05:06:49;;;;;;;16.00;14.30;;;;;;;27.93;100.00;99677.89;1810394;79;20880;-59
2022/08/19 05:09:16;;;;;;;16.07;13.53;;;;;;;28.01;100.00;99685.70;1810640;79;20907;-58
2022/08/19 05:11:43;;;;;;;14.68;13.38;;;;;;;28.47;100.00;99685.67;1810049;79;20940;-59
2022/08/19 05:14:12;;;;;;;18.85;13.88;;;;;;;28.92;100.00;99687.98;1810235;79;21867;-59
2022/08/19 05:16:40;;;;;;;14.15;12.50;;;;;;;29.44;100.00;99690.53;1810707;78;21477;-59
2022/08/19 05:24:38;;;;;;;16.02;12.85;;;;;;;31.11;100.00;99674.42;1791289;79;20931;-59
2022/08/19 05:27:06;;;;;;;15.15;13.62;;;;;;;31.68;100.00;99675.47;1808922;79;21243;-63
2022/08/19 05:29:36;;;;;;;15.48;13.78;;;;;;;32.02;100.00;99673.42;1809807;79;21509;-59
2022/08/19 05:32:04;;;;;;;14.90;13.40;;;;;;;32.19;100.00;99683.92;1809992;79;20974;-61
2022/08/19 05:34:33;;;;;;;16.73;13.30;;;;;;;32.29;100.00;99671.31;1809838;79;20888;-59
2022/08/19 05:37:01;;;;;;;15.70;12.60;;;;;;;32.76;100.00;99672.02;1809112;79;22281;-66
2022/08/19 05:39:30;;;;;;;18.30;14.15;;;;;;;33.15;100.00;99674.39;1809931;79;21632;-59
2022/08/19 05:42:02;;;;;;;17.07;14.68;;;;;;;33.30;97.86;99680.13;1809819;79;20980;-59
2022/08/19 05:44:31;;;;;;;16.27;14.58;;;;;;;32.76;96.38;99685.50;1808632;79;20932;-59
2022/08/19 05:47:00;;;;;;;18.63;14.87;;;;;;;31.78;99.72;99693.08;1809194;79;21043;-63
2022/08/19 05:49:27;;;;;;;19.23;16.50;;;;;;;30.88;100.00;99688.84;1809465;79;21902;-59
2022/08/19 05:51:55;;;;;;;18.98;16.97;;;;;;;30.29;100.00;99691.72;1810110;79;21146;-58
2022/08/19 05:54:23;;;;;;;18.65;16.37;;;;;;;30.13;100.00;99692.06;1804313;79;21035;-59
2022/08/19 05:56:51;;;;;;;21.70;17.40;;;;;;;30.21;100.00;99690.67;1799435;79;21024;-64
2022/08/19 05:59:19;;;;;;;17.35;15.55;;;;;;;30.42;100.00;99690.67;1798993;79;21042;-60
2022/08/19 06:01:46;;;;;;;18.77;14.78;;;;;;;30.91;100.00;99691.41;1799795;79;21067;-59
2022/08/19 06:04:13;;;;;;;17.35;14.28;;;;;;;31.20;100.00;99693.16;1799731;79;21154;-58
2022/08/19 06:06:42;;;;;;;16.10;14.25;;;;;;;31.54;100.00;99696.02;1799218;79;21412;-65
2022/08/19 06:09:10;;;;;;;16.07;14.47;;;;;;;32.13;100.00;99694.74;1799365;79;21478;-66
2022/08/19 06:11:46;;;;;;;15.90;14.33;;;;;;;32.43;100.00;99692.54;1799144;79;21014;-58
2022/08/19 06:14:17;;;;;;;14.28;12.78;;;;;;;32.82;100.00;99690.10;1799639;79;21399;-58
2022/08/19 06:16:45;;;;;;;13.83;11.73;;;;;;;33.10;96.35;99692.19;1799034;79;21297;-62
2022/08/19 06:19:15;;;;;;;16.17;14.45;;;;;;;33.42;96.42;99686.80;1799235;79;22015;-59
2022/08/19 06:21:46;;;;;;;20.10;14.13;;;;;;;33.79;88.55;99689.99;1799681;79;21426;-58
2022/08/19 06:24:15;;;;;;;;;;;;;;;34.12;83.93;99682.78;1802248;79;21473;-58
2022/08/19 06:26:44;;;;;;;14.73;13.22;;;;;;;34.47;81.54;99682.48;1799080;79;20427;-58
2022/08/19 06:29:12;;;;;;;15.45;13.72;;;;;;;34.89;79.20;99694.69;1799060;79;21193;-63
2022/08/19 06:31:49;;;;;;;14.98;13.30;;;;;;;35.38;70.64;99691.27;1799633;79;21383;-57
2022/08/19 06:34:16;;;;;;;14.75;13.35;;;;;;;35.55;69.74;99694.86;1799412;79;20988;-68
2022/08/19 06:36:47;;;;;;;16.57;14.87;;;;;;;35.71;64.45;99697.98;1798968;79;20944;-59
2022/08/19 06:39:16;;;;;;;;;;;;;;;35.99;66.55;99702.48;1802466;79;21471;-59
2022/08/19 06:41:46;;;;;;;16.97;14.95;;;;;;;36.38;63.17;99698.09;1799290;79;21113;-58
2022/08/19 06:44:15;;;;;;;16.40;14.70;;;;;;;36.82;58.73;99706.91;1799003;79;21522;-68
2022/08/19 06:46:42;;;;;;;17.07;15.28;;;;;;;37.11;55.14;99706.63;1799085;79;20933;-58
2022/08/19 06:49:13;;;;;;;16.97;15.28;;;;;;;37.21;52.38;99710.02;1799021;79;21402;-58
2022/08/19 06:51:38;;;;;;;16.15;14.58;;;;;;;37.22;55.17;99699.92;1799220;79;21814;-58
2022/08/19 06:54:06;;;;;;;16.17;14.68;;;;;;;37.88;53.42;99691.84;1802211;78;21250;-58
2022/08/19 06:56:34;;;;;;;18.45;15.40;;;;;;;38.54;47.99;99698.53;1809718;79;20841;-58
2022/08/19 06:59:08;;;;;;;15.30;13.78;;;;;;;38.76;47.55;99696.04;1808833;79;20971;-60
2022/08/19 07:01:37;;;;;;;18.35;16.48;;;;;;;39.05;45.96;99694.71;1809809;79;21003;-58
2022/08/19 07:04:08;;;;;;;15.13;13.62;;;;;;;38.97;44.54;99690.43;1809621;79;20868;-58
2022/08/19 07:06:36;;;;;;;14.87;13.38;;;;;;;38.63;44.89;99692.12;1809323;79;21211;-58
2022/08/19 07:09:05;;;;;;;14.35;12.95;;;;;;;38.86;45.35;99695.87;1808695;79;21078;-58
2022/08/19 07:11:32;;;;;;;14.43;13.03;;;;;;;39.40;45.40;99697.45;1809699;79;22366;-58
2022/08/19 07:14:00;;;;;;;15.35;13.88;;;;;;;39.84;43.81;99690.73;1809482;79;21019;-58
2022/08/19 07:16:28;;;;;;;14.25;12.85;;;;;;;40.31;41.86;99689.19;1809965;79;20924;-59
2022/08/19 07:18:56;;;;;;;14.63;12.68;;;;;;;40.76;40.82;99688.73;1808818;79;21376;-67
2022/08/19 07:21:27;;;;;;;15.18;13.68;;;;;;;41.18;40.23;99692.34;1810071;79;21045;-58
2022/08/19 07:23:56;;;;;;;15.78;14.20;;;;;;;41.39;38.99;99688.61;1810009;79;20892;-58
2022/08/19 07:26:29;;;;;;;14.05;12.75;;;;;;;41.27;38.18;99688.53;1809620;79;21037;-67
2022/08/19 07:28:57;;;;;;;15.93;14.25;;;;;;;41.40;37.26;99689.38;1808977;79;20984;-58
2022/08/19 07:31:26;;;;;;;15.78;14.38;;;;;;;41.37;38.07;99695.09;1809725;79;21402;-58
2022/08/19 07:33:59;;;;;;;16.60;14.93;;;;;;;41.59;38.40;99691.55;1810161;79;20920;-58
2022/08/19 07:36:28;;;;;;;;;;;;;;;41.88;37.75;99690.67;1810812;79;21058;-59
2022/08/19 07:38:55;;;;;;;12.80;11.30;;;;;;;42.11;36.99;99694.09;1809699;79;20178;-58
2022/08/19 07:41:25;;;;;;;12.93;11.73;;;;;;;42.28;35.22;99699.97;1809940;79;20959;-58
2022/08/19 07:43:53;;;;;;;11.57;10.55;;;;;;;42.23;36.78;99701.75;1809791;79;21257;-58
2022/08/19 07:46:23;;;;;;;12.95;11.65;;;;;;;42.55;35.45;99710.76;1809261;79;20925;-58
2022/08/19 07:48:50;;;;;;;13.08;11.70;;;;;;;43.03;33.87;99709.03;1810261;79;21403;-58
2022/08/19 07:51:20;;;;;;;12.35;11.25;;;;;;;43.24;34.14;99712.05;1787938;79;20919;-58
2022/08/19 07:53:47;;;;;;;;;;;;;;;43.34;33.29;99713.03;1813037;79;21481;-58
2022/08/19 07:56:14;;;;;;;12.65;11.53;;;;;;;43.28;32.65;99712.75;1809360;79;21137;-66
2022/08/19 07:58:43;;;;;;;10.98;10.03;;;;;;;43.27;32.65;99716.70;1810472;79;21248;-58
2022/08/19 08:01:16;;;;;;;9.78;8.83;;;;;;;42.85;32.17;99717.56;1810212;79;20916;-58
2022/08/19 08:09:22;;;;;;;9.30;8.50;;;;;;;40.92;35.02;99723.00;1810198;79;21268;-67
2022/08/19 08:11:57;;;;;;;9.35;8.53;;;;;;;40.43;35.43;99724.84;1810386;79;22322;-57
2022/08/19 08:14:34;;;;;;;9.15;8.33;;;;;;;39.83;35.55;99725.25;1808837;79;20963;-58
2022/08/19 08:17:02;;;;;;;9.08;8.18;;;;;;;39.43;36.76;99721.78;1809359;79;21006;-59
2022/08/19 08:19:30;;;;;;;8.40;7.58;;;;;;;38.99;37.61;99719.45;1809549;79;21481;-58
2022/08/19 08:22:00;;;;;;;8.95;7.95;;;;;;;38.57;39.09;99726.36;1810109;79;21023;-58
2022/08/19 08:24:30;;;;;;;10.03;8.05;;;;;;;38.15;39.21;99719.00;1809905;79;21041;-59
2022/08/19 08:26:58;;;;;;;10.28;8.15;;;;;;;37.61;41.09;99719.25;1809155;79;21027;-60
2022/08/19 08:29:27;;;;;;;9.85;8.13;;;;;;;37.10;41.51;99731.47;1809070;79;20966;-58
2022/08/19 08:31:54;;;;;;;9.78;7.95;;;;;;;36.61;43.02;99736.00;1809721;79;20976;-57
2022/08/19 08:34:22;;;;;;;8.48;7.67;;;;;;;36.43;44.84;99730.91;1809631;79;21755;-57
2022/08/19 08:36:51;;;;;;;9.05;8.15;;;;;;;36.48;46.40;99736.84;1809142;79;20968;-58
2022/08/19 08:39:19;;;;;;;9.98;8.93;;;;;;;36.21;45.52;99732.58;1808889;79;21100;-58
2022/08/19 08:42:12;;;;;;;10.10;9.03;;;;;;;35.89;46.37;99738.34;1809577;79;21434;-58
2022/08/19 08:44:57;;;;;;;9.48;8.48;;;;;;;35.11;50.04;99728.38;1809532;79;21500;-57
2022/08/19 08:47:24;;;;;;;10.35;9.05;;;;;;;35.21;51.68;99728.36;1809991;79;21285;-57
2022/08/19 08:49:59;;;;;;;9.58;8.75;;;;;;;35.27;52.95;99730.97;1809484;79;20996;-59
2022/08/19 08:52:30;;;;;;;11.55;9.23;;;;;;;35.19;54.48;99728.70;1809676;79;21224;-69
2022/08/19 08:55:00;;;;;;;9.80;8.80;;;;;;;35.31;55.09;99733.19;1806481;79;21434;-57
2022/08/19 08:57:54;;;;;;;10.87;9.73;;;;;;;35.42;52.54;99732.79;1800192;79;21501;-57
2022/08/19 09:00:28;;;;;;;9.65;8.68;;;;;;;35.65;52.91;99731.42;1799044;79;21262;-64
2022/08/19 09:02:57;;;;;;;7.60;6.80;;;;;;;35.96;51.81;99733.59;1799727;79;21300;-56
2022/08/19 09:05:28;;;;;;;8.25;7.55;;;;;;;35.54;49.81;99732.61;1799063;79;20983;-57
2022/08/19 09:08:16;;;;;;;8.55;7.20;;;;;;;35.49;49.55;99734.26;1799735;79;21045;-57
2022/08/19 09:10:48;;;;;;;11.63;8.25;;;;;;;35.25;51.64;99728.63;1797914;79;21312;-66
2022/08/19 09:14:00;;;;;;;9.05;8.15;;;;;;;35.65;54.67;99738.20;1799489;79;21885;-57
2022/08/19 09:16:27;;;;;;;9.40;8.15;;;;;;;36.33;50.82;99741.84;1798636;79;20991;-56
2022/08/19 09:18:59;;;;;;;9.00;7.65;;;;;;;36.70;47.25;99732.98;1799338;79;20936;-57
2022/08/19 09:21:27;;;;;;;8.28;7.55;;;;;;;36.76;46.73;99725.49;1799367;79;20964;-61
2022/08/19 09:23:54;;;;;;;7.33;6.62;;;;;;;37.29;45.89;99732.59;1798932;79;21031;-58
2022/08/19 09:26:22;;;;;;;7.55;6.83;;;;;;;37.58;45.63;99724.11;1799757;79;21877;-56
2022/08/19 09:28:52;;;;;;;7.50;6.47;;;;;;;38.16;44.54;99718.41;1799677;79;21016;-57
2022/08/19 09:31:22;;;;;;;8.05;6.45;;;;;;;38.65;41.65;99725.98;1799632;79;21498;-57
2022/08/19 09:33:50;;;;;;;6.25;5.60;;;;;;;38.94;41.22;99724.09;1798531;79;21510;-58
2022/08/19 09:36:19;;;;;;;6.72;5.72;;;;;;;39.31;38.67;99712.64;1799709;79;21455;-58
2022/08/19 09:38:46;;;;;;;6.22;5.10;;;;;;;39.46;37.70;99715.55;1799599;79;21307;-56
2022/08/19 09:41:17;;;;;;;6.55;5.60;;;;;;;39.28;37.14;99712.06;1799690;79;20852;-56
2022/08/19 09:43:46;;;;;;;7.40;6.10;;;;;;;39.08;37.01;99715.74;1799354;79;20925;-67
2022/08/19 09:46:14;;;;;;;7.07;5.60;;;;;;;38.96;38.20;99720.22;1770865;79;21694;-57
2022/08/19 09:48:42;;;;;;;8.38;5.55;;;;;;;38.85;36.95;99718.25;1799466;79;21272;-56
2022/08/19 09:51:15;;;;;;;7.65;5.87;;;;;;;38.39;38.21;99716.19;1799855;79;21215;-56
2022/08/19 09:53:41;;;;;;;8.33;6.80;;;;;;;38.31;39.07;99720.61;1799256;79;21447;-56
2022/08/19 09:56:09;;;;;;;7.08;6.42;;;;;;;38.41;39.16;99722.02;1802497;78;20987;-58
2022/08/19 09:58:37;;;;;;;7.40;5.62;;;;;;;38.40;37.99;99713.66;1804896;79;21086;-57
2022/08/19 10:01:05;;;;;;;6.08;5.40;;;;;;;38.79;39.67;99712.98;1804715;79;20945;-58
2022/08/19 10:03:33;;;;;;;7.70;6.60;;;;;;;39.32;37.37;99704.66;1804749;79;21798;-57
2022/08/19 10:06:03;;;;;;;5.62;4.90;;;;;;;39.66;37.27;99706.34;1805030;79;21978;-58
2022/08/19 10:08:34;;;;;;;7.07;5.60;;;;;;;39.83;36.59;99708.29;1804926;79;20987;-56
2022/08/19 10:11:02;;;;;;;6.90;5.37;;;;;;;39.83;36.45;99706.15;1804871;79;20992;-67
2022/08/19 10:13:30;;;;;;;7.30;5.10;;;;;;;39.71;35.89;99703.85;1804640;79;20885;-56
2022/08/19 10:16:08;;;;;;;6.60;4.90;;;;;;;39.55;35.64;99705.03;1804582;79;21160;-58
2022/08/19 10:18:35;;;;;;;8.75;6.28;;;;;;;39.34;36.30;99703.09;1804705;79;21461;-57
2022/08/19 10:21:16;;;;;;;6.37;5.17;;;;;;;38.93;35.92;99704.83;1804326;79;20987;-62
2022/08/19 10:23:45;;;;;;;6.25;5.47;;;;;;;38.36;36.19;99703.34;1804145;79;21047;-63
2022/08/19 10:26:22;;;;;;;7.15;6.00;;;;;;;37.95;37.62;99708.20;1805053;79;21587;-57
2022/08/19 10:28:49;;;;;;;7.00;5.80;;;;;;;37.88;37.97;99698.64;1804593;79;21214;-58
2022/08/19 10:31:24;;;;;;;5.95;5.35;;;;;;;37.71;37.50;99698.73;1804758;79;22045;-67
2022/08/19 10:33:57;;;;;;;6.22;5.53;;;;;;;37.64;37.53;99700.81;1804873;79;21526;-57
2022/08/19 10:36:23;;;;;;;7.45;6.03;;;;;;;37.65;38.67;99700.23;1804419;79;20948;-56
2022/08/19 10:38:53;;;;;;;6.90;5.40;;;;;;;37.65;38.59;99698.29;1804534;79;20996;-59
2022/08/19 10:41:22;;;;;;;6.45;5.78;;;;;;;37.71;38.28;99696.78;1804349;79;25094;-58
2022/08/19 10:43:58;;;;;;;7.90;5.60;;;;;;;37.65;38.21;99698.29;1805221;79;21307;-57
2022/08/19 10:46:27;;;;;;;7.60;5.97;;;;;;;37.59;38.33;99688.17;1805016;79;20976;-56
2022/08/19 10:48:54;;;;;;;8.45;5.62;;;;;;;37.47;39.07;99690.63;1804464;79;21528;-58
2022/08/19 10:54:07;;;;;;;6.28;5.65;;;;;;;37.92;38.18;99691.27;1804385;79;21320;-66
2022/08/19 10:56:53;;;;;;;6.58;5.55;;;;;;;38.14;38.57;99684.75;1807391;79;20979;-58
2022/08/19 10:59:23;;;;;;;6.05;5.45;;;;;;;38.53;37.92;99681.97;1809607;79;21007;-57
2022/08/19 11:01:50;;;;;;;7.72;5.87;;;;;;;39.04;36.80;99677.58;1809875;79;20960;-57
2022/08/19 11:04:18;;;;;;;6.50;5.80;;;;;;;39.23;35.66;99680.48;1809290;79;21033;-57
2022/08/19 11:06:49;;;;;;;8.08;5.75;;;;;;;39.15;34.82;99683.81;1808807;79;21418;-57
2022/08/19 11:09:17;;;;;;;;;;;;;;;38.61;35.93;99678.12;1812329;79;21427;-57
2022/08/19 11:11:47;;;;;;;8.95;5.62;;;;;;;38.48;36.87;99676.91;1810099;79;20145;-57
2022/08/19 11:14:18;;;;;;;5.92;5.33;;;;;;;38.55;35.99;99673.63;1808773;79;20900;-58
2022/08/19 11:16:45;;;;;;;6.92;5.70;;;;;;;38.43;38.04;99674.77;1809242;79;21030;-60
2022/08/19 11:19:12;;;;;;;7.03;5.15;;;;;;;38.25;38.16;99666.33;1809535;79;21378;-56
2022/08/19 11:21:42;;;;;;;7.80;5.97;;;;;;;38.39;37.03;99671.27;1809540;79;20876;-56
2022/08/19 11:24:13;;;;;;;5.80;5.05;;;;;;;38.46;37.03;99665.06;1809528;79;21557;-57
2022/08/19 11:26:42;;;;;;;6.33;5.58;;;;;;;38.45;37.30;99665.64;1809359;79;21730;-59
2022/08/19 11:29:13;;;;;;;6.05;5.25;;;;;;;38.35;36.39;99666.98;1809228;79;21348;-57
2022/08/19 11:31:42;;;;;;;6.92;5.65;;;;;;;37.94;36.44;99667.97;1809871;79;21842;-56
2022/08/19 11:34:13;;;;;;;9.78;7.47;;;;;;;37.74;37.64;99670.19;1809131;79;21031;-57
2022/08/19 11:36:42;;;;;;;7.10;6.40;;;;;;;37.56;39.15;99663.87;1809138;79;20985;-57
2022/08/19 11:39:10;;;;;;;7.72;7.03;;;;;;;37.23;39.73;99666.91;1809473;79;21438;-57
2022/08/19 11:41:37;;;;;;;9.23;7.40;;;;;;;37.01;40.81;99671.98;1809873;79;21089;-57
2022/08/19 11:44:07;;;;;;;7.58;6.78;;;;;;;36.76;41.71;99663.61;1809167;79;21160;-66
2022/08/19 11:46:36;;;;;;;7.92;7.08;;;;;;;36.60;42.70;99660.36;1809221;79;21300;-59